Time;durP1;ratioP1;P1;durP2;ratioP2;P2;SDS_P1;SDS_P2;PMS_P1;PMS_P2;Temp;Humidity;BMP_temperature;BMP_pressure;BME280_temperature;BME280_humidity;BME280_pressure;Samples;Min_cycle;Max_cycle;Signal;HPM_P1;HPM_P2
2021/10/07 00:01:21;;;;;;;52.47;24.20;;;;;;;;;;4994849;28;20777;-49
2021/10/07 00:03:47;;;;;;;48.43;24.20;;;;;;;;;;4994555;28;20460;-47
2021/10/07 00:06:13;;;;;;;58.17;23.53;;;;;;;;;;4994795;28;20412;-47
2021/10/07 00:08:39;;;;;;;49.87;22.10;;;;;;;;;;4993496;28;20416;-47
2021/10/07 00:11:05;;;;;;;50.03;23.13;;;;;;;;;;4994732;28;20543;-46
2021/10/07 00:13:31;;;;;;;43.33;21.63;;;;;;;;;;4994222;28;20768;-47
2021/10/07 00:15:57;;;;;;;48.23;22.20;;;;;;;;;;4994405;28;20408;-47
2021/10/07 00:18:23;;;;;;;45.93;21.07;;;;;;;;;;4993172;28;20930;-47
2021/10/07 00:20:49;;;;;;;48.27;23.90;;;;;;;;;;4994230;28;20460;-46
2021/10/07 00:23:20;;;;;;;46.60;22.93;;;;;;;;;;4994211;28;20494;-46
2021/10/07 00:25:46;;;;;;;44.60;22.30;;;;;;;;;;4994298;28;20564;-49
2021/10/07 00:28:12;;;;;;;48.63;21.47;;;;;;;;;;4994300;28;20491;-47
2021/10/07 00:30:40;;;;;;;45.40;22.77;;;;;;;;;;4994323;28;20446;-47
2021/10/07 00:33:16;;;;;;;42.70;23.70;;;;;;;;;;4994082;28;20416;-47
2021/10/07 00:36:04;;;;;;;51.10;23.90;;;;;;;;;;4994340;28;20766;-47
2021/10/07 00:41:14;;;;;;;45.20;22.43;;;;;;;;;;4994263;28;20795;-46
2021/10/07 00:43:40;;;;;;;55.90;23.83;;;;;;;;;;4993717;28;20404;-46
2021/10/07 00:46:06;;;;;;;51.50;22.70;;;;;;;;;;4994139;28;20956;-47
2021/10/07 00:48:32;;;;;;;53.40;24.37;;;;;;;;;;4993947;28;20853;-47
2021/10/07 00:50:58;;;;;;;50.43;22.00;;;;;;;;;;4993875;28;20936;-48
2021/10/07 00:53:24;;;;;;;50.70;24.07;;;;;;;;;;4993796;28;20422;-48
2021/10/07 00:55:50;;;;;;;44.43;20.67;;;;;;;;;;4993930;28;20400;-46
2021/10/07 00:58:18;;;;;;;42.23;21.27;;;;;;;;;;4993696;28;20878;-46
2021/10/07 01:00:44;;;;;;;48.60;21.57;;;;;;;;;;4993272;28;20424;-46
2021/10/07 01:03:10;;;;;;;53.43;20.90;;;;;;;;;;4992830;28;20495;-47
2021/10/07 01:05:36;;;;;;;45.17;21.17;;;;;;;;;;4993266;28;20493;-47
2021/10/07 01:08:02;;;;;;;39.07;19.67;;;;;;;;;;4992926;28;20489;-46
2021/10/07 01:10:28;;;;;;;47.37;22.10;;;;;;;;;;4993515;28;20416;-47
2021/10/07 01:12:54;;;;;;;42.77;21.37;;;;;;;;;;4993394;28;20407;-47
2021/10/07 01:15:20;;;;;;;46.23;22.10;;;;;;;;;;4993515;28;20408;-46
2021/10/07 01:17:47;;;;;;;40.17;20.13;;;;;;;;;;4993441;28;20459;-46
2021/10/07 01:20:13;;;;;;;45.70;20.77;;;;;;;;;;4993240;28;20554;-47
2021/10/07 01:22:39;;;;;;;46.50;22.90;;;;;;;;;;4993243;28;20482;-46
2021/10/07 01:25:06;;;;;;;40.47;20.93;;;;;;;;;;4993227;28;20540;-47
2021/10/07 01:27:32;;;;;;;71.77;21.97;;;;;;;;;;4993245;28;20400;-47
2021/10/07 01:30:00;;;;;;;52.63;21.90;;;;;;;;;;4992930;28;20448;-47
2021/10/07 01:32:26;;;;;;;42.70;21.10;;;;;;;;;;4993035;28;20400;-47
2021/10/07 01:34:52;;;;;;;42.77;20.30;;;;;;;;;;4993073;28;20408;-46
2021/10/07 01:37:18;;;;;;;35.03;18.07;;;;;;;;;;4992915;28;20886;-46
2021/10/07 01:39:44;;;;;;;39.70;18.90;;;;;;;;;;4992637;28;20428;-46
2021/10/07 01:42:10;;;;;;;35.13;18.00;;;;;;;;;;4992925;28;20415;-47
2021/10/07 01:44:36;;;;;;;45.47;19.30;;;;;;;;;;4992826;28;20978;-47
2021/10/07 01:47:02;;;;;;;34.07;18.60;;;;;;;;;;4992983;28;20400;-47
2021/10/07 01:49:28;;;;;;;32.27;16.77;;;;;;;;;;4992812;28;20424;-47
2021/10/07 01:51:54;;;;;;;40.07;19.93;;;;;;;;;;4992818;28;20397;-48
2021/10/07 01:54:20;;;;;;;37.53;19.53;;;;;;;;;;4992852;28;20514;-48
2021/10/07 01:56:46;;;;;;;34.30;19.30;;;;;;;;;;4992821;28;20416;-47
2021/10/07 01:59:12;;;;;;;39.83;20.07;;;;;;;;;;4992584;28;20428;-47
2021/10/07 02:01:38;;;;;;;44.33;17.87;;;;;;;;;;4992817;28;20408;-46
2021/10/07 02:04:05;;;;;;;32.53;18.50;;;;;;;;;;4992427;28;20552;-46
2021/10/07 02:06:31;;;;;;;42.60;19.90;;;;;;;;;;4992618;28;20443;-47
2021/10/07 02:08:57;;;;;;;36.93;17.37;;;;;;;;;;4992558;28;20538;-47
2021/10/07 02:11:24;;;;;;;33.73;17.70;;;;;;;;;;4992640;28;20885;-47
2021/10/07 02:13:50;;;;;;;38.00;18.17;;;;;;;;;;4992751;28;20797;-47
2021/10/07 02:16:16;;;;;;;37.67;17.53;;;;;;;;;;4992634;28;20491;-47
2021/10/07 02:18:42;;;;;;;37.73;18.63;;;;;;;;;;4992608;28;20408;-46
2021/10/07 02:21:08;;;;;;;36.10;18.00;;;;;;;;;;4992707;28;20470;-47
2021/10/07 02:23:34;;;;;;;38.07;20.20;;;;;;;;;;4992252;28;20408;-45
2021/10/07 02:26:00;;;;;;;37.87;18.70;;;;;;;;;;4992482;28;20896;-48
2021/10/07 02:28:26;;;;;;;46.03;19.30;;;;;;;;;;4992303;28;20848;-47
2021/10/07 02:30:53;;;;;;;33.50;17.20;;;;;;;;;;4992249;28;20448;-46
2021/10/07 02:33:19;;;;;;;39.60;17.63;;;;;;;;;;4992154;28;20432;-47
2021/10/07 02:35:45;;;;;;;41.97;20.27;;;;;;;;;;4992326;28;20450;-47
2021/10/07 02:38:11;;;;;;;9.03;6.90;;;;;;;;;;4992243;28;20414;-48
2021/10/07 02:40:37;;;;;;;48.00;20.17;;;;;;;;;;4992218;28;20424;-46
2021/10/07 02:43:03;;;;;;;41.37;18.47;;;;;;;;;;4992076;28;20415;-46
2021/10/07 02:45:29;;;;;;;49.20;19.50;;;;;;;;;;4992193;28;20470;-46
2021/10/07 02:47:55;;;;;;;44.67;17.60;;;;;;;;;;4992275;28;20904;-46
2021/10/07 02:50:22;;;;;;;41.60;17.00;;;;;;;;;;4994709;28;20927;-46
2021/10/07 02:52:48;;;;;;;46.97;19.10;;;;;;;;;;4995990;28;20922;-46
2021/10/07 02:55:14;;;;;;;46.50;19.77;;;;;;;;;;4996105;28;20413;-47
2021/10/07 02:57:45;;;;;;;92.83;21.83;;;;;;;;;;4996004;28;20408;-47
2021/10/07 03:00:12;;;;;;;51.03;20.10;;;;;;;;;;4996139;28;20574;-47
2021/10/07 03:02:38;;;;;;;201.53;92.27;;;;;;;;;;4995792;28;20487;-47
2021/10/07 03:05:05;;;;;;;30.07;27.53;;;;;;;;;;4995888;28;20862;-47
2021/10/07 03:07:31;;;;;;;146.77;106.03;;;;;;;;;;4995861;28;20400;-49
2021/10/07 03:09:57;;;;;;;35.80;18.03;;;;;;;;;;4995637;28;21007;-47
2021/10/07 03:12:23;;;;;;;40.10;17.83;;;;;;;;;;4995836;28;20409;-46
2021/10/07 03:14:49;;;;;;;39.10;15.80;;;;;;;;;;4995724;28;20467;-46
2021/10/07 03:17:16;;;;;;;30.87;16.93;;;;;;;;;;4995683;28;20400;-47
2021/10/07 03:19:42;;;;;;;41.53;18.50;;;;;;;;;;4995594;28;20498;-47
2021/10/07 03:22:08;;;;;;;39.63;19.30;;;;;;;;;;4995451;28;20836;-47
2021/10/07 03:24:34;;;;;;;48.37;20.07;;;;;;;;;;4995366;28;20455;-47
2021/10/07 03:27:03;;;;;;;51.67;20.60;;;;;;;;;;4995697;28;20522;-47
2021/10/07 03:29:29;;;;;;;47.43;21.03;;;;;;;;;;4995534;28;20526;-48
2021/10/07 03:31:55;;;;;;;47.10;20.63;;;;;;;;;;4995260;28;20420;-46
2021/10/07 03:34:21;;;;;;;47.70;19.40;;;;;;;;;;4995498;28;20404;-47
2021/10/07 03:36:47;;;;;;;42.20;19.87;;;;;;;;;;4995327;28;20409;-47
2021/10/07 03:39:13;;;;;;;47.60;20.33;;;;;;;;;;4995304;28;20423;-46
2021/10/07 03:41:39;;;;;;;43.97;19.73;;;;;;;;;;4995220;28;20409;-47
2021/10/07 03:44:06;;;;;;;39.90;18.77;;;;;;;;;;4995167;28;20940;-47
2021/10/07 03:46:32;;;;;;;44.43;19.17;;;;;;;;;;4995076;28;20409;-46
2021/10/07 03:48:58;;;;;;;46.50;21.97;;;;;;;;;;4995161;28;20903;-47
2021/10/07 03:51:24;;;;;;;47.50;21.73;;;;;;;;;;4995076;28;20405;-48
2021/10/07 03:53:50;;;;;;;56.70;25.47;;;;;;;;;;4994891;28;20447;-49
2021/10/07 03:56:16;;;;;;;63.87;25.20;;;;;;;;;;4995047;28;20490;-46
2021/10/07 03:58:42;;;;;;;54.87;22.97;;;;;;;;;;4994916;28;20412;-47
2021/10/07 04:01:08;;;;;;;55.73;24.43;;;;;;;;;;4994332;28;20415;-46
2021/10/07 04:03:34;;;;;;;59.37;26.23;;;;;;;;;;4994672;28;20431;-46
2021/10/07 04:06:00;;;;;;;65.37;25.13;;;;;;;;;;4994849;28;20407;-47
2021/10/07 04:08:26;;;;;;;75.90;26.70;;;;;;;;;;4994661;28;20434;-47
2021/10/07 04:10:52;;;;;;;71.83;26.37;;;;;;;;;;4994630;28;20861;-46
2021/10/07 04:13:19;;;;;;;53.50;24.50;;;;;;;;;;4994534;28;20411;-46
2021/10/07 04:15:46;;;;;;;61.70;24.50;;;;;;;;;;4994646;28;20465;-46
2021/10/07 04:18:13;;;;;;;59.47;24.50;;;;;;;;;;4994588;28;20440;-47
2021/10/07 04:20:39;;;;;;;59.03;24.63;;;;;;;;;;4994469;28;20503;-46
2021/10/07 04:23:05;;;;;;;59.73;23.00;;;;;;;;;;4994326;28;20848;-46
2021/10/07 04:25:31;;;;;;;60.50;23.97;;;;;;;;;;4994382;28;20503;-47
2021/10/07 04:27:57;;;;;;;62.27;24.07;;;;;;;;;;4994457;28;20401;-47
2021/10/07 04:30:23;;;;;;;80.47;25.07;;;;;;;;;;4994570;28;20478;-47
2021/10/07 04:32:49;;;;;;;52.43;22.90;;;;;;;;;;4994210;28;20408;-48
2021/10/07 04:35:16;;;;;;;55.13;24.13;;;;;;;;;;4994319;28;20408;-47
2021/10/07 04:37:42;;;;;;;143.67;94.43;;;;;;;;;;4994134;28;20535;-47
2021/10/07 04:40:09;;;;;;;54.23;23.60;;;;;;;;;;4994304;28;20451;-47
2021/10/07 04:42:35;;;;;;;55.63;21.90;;;;;;;;;;4994182;28;20414;-48
2021/10/07 04:45:01;;;;;;;62.23;23.50;;;;;;;;;;4994067;28;20933;-46
2021/10/07 04:47:28;;;;;;;56.90;24.27;;;;;;;;;;4994117;28;20675;-46
2021/10/07 04:49:55;;;;;;;60.10;23.03;;;;;;;;;;4994024;28;20425;-47
2021/10/07 04:52:21;;;;;;;55.00;22.73;;;;;;;;;;4993718;28;20404;-47
2021/10/07 04:54:47;;;;;;;59.20;24.63;;;;;;;;;;4994070;28;20956;-47
2021/10/07 04:57:13;;;;;;;54.43;23.23;;;;;;;;;;4993833;28;20430;-46
2021/10/07 04:59:39;;;;;;;60.63;23.90;;;;;;;;;;4993792;28;20948;-47
2021/10/07 05:02:05;;;;;;;71.87;24.83;;;;;;;;;;4993552;28;20412;-46
2021/10/07 05:04:31;;;;;;;57.70;22.87;;;;;;;;;;4993630;28;20949;-47
2021/10/07 05:06:57;;;;;;;50.40;22.07;;;;;;;;;;4993665;28;20397;-47
2021/10/07 05:09:23;;;;;;;59.27;22.23;;;;;;;;;;4993653;28;20480;-47
2021/10/07 05:11:49;;;;;;;65.53;23.17;;;;;;;;;;4993411;28;20483;-47
2021/10/07 05:14:15;;;;;;;71.63;23.43;;;;;;;;;;4992547;28;20507;-48
2021/10/07 05:16:41;;;;;;;60.23;22.97;;;;;;;;;;4993610;28;20762;-45
2021/10/07 05:19:07;;;;;;;68.40;24.90;;;;;;;;;;4993526;28;20948;-47
2021/10/07 05:21:33;;;;;;;57.73;23.60;;;;;;;;;;4993583;28;20763;-47
2021/10/07 05:23:59;;;;;;;66.97;22.60;;;;;;;;;;4993238;28;20452;-46
2021/10/07 05:26:25;;;;;;;60.17;21.60;;;;;;;;;;4993310;28;20401;-46
2021/10/07 05:28:51;;;;;;;61.20;23.37;;;;;;;;;;4993199;28;20405;-47
2021/10/07 05:31:19;;;;;;;57.23;21.50;;;;;;;;;;4993557;28;20400;-58
2021/10/07 05:33:45;;;;;;;67.43;22.63;;;;;;;;;;4992986;28;20400;-50
2021/10/07 05:36:11;;;;;;;64.63;23.33;;;;;;;;;;4993204;28;20419;-49
2021/10/07 05:38:37;;;;;;;55.93;21.60;;;;;;;;;;4993152;28;20407;-49
2021/10/07 05:41:04;;;;;;;54.73;21.47;;;;;;;;;;4993099;28;20865;-49
2021/10/07 05:43:30;;;;;;;59.30;21.40;;;;;;;;;;4992774;28;20947;-49
2021/10/07 05:45:56;;;;;;;64.83;23.23;;;;;;;;;;4993050;28;20459;-49
2021/10/07 05:48:22;;;;;;;65.03;22.97;;;;;;;;;;4992814;28;20824;-50
2021/10/07 05:50:48;;;;;;;64.30;23.13;;;;;;;;;;4992989;28;20508;-49
2021/10/07 05:53:14;;;;;;;52.70;21.10;;;;;;;;;;4992657;28;20911;-48
2021/10/07 05:55:40;;;;;;;85.37;53.80;;;;;;;;;;4992873;28;20412;-48
2021/10/07 05:58:06;;;;;;;20.00;16.90;;;;;;;;;;4992691;28;20408;-49
2021/10/07 06:00:32;;;;;;;0.10;0.10;;;;;;;;;;4992805;28;20486;-50
2021/10/07 06:02:58;;;;;;;20.40;12.33;;;;;;;;;;4992415;28;20435;-48
2021/10/07 06:05:24;;;;;;;55.57;22.90;;;;;;;;;;4992689;28;20451;-47
2021/10/07 06:07:50;;;;;;;59.00;22.77;;;;;;;;;;4992644;28;20873;-50
2021/10/07 06:10:16;;;;;;;61.60;24.80;;;;;;;;;;4992674;28;20439;-50
2021/10/07 06:12:43;;;;;;;70.50;27.00;;;;;;;;;;4992323;28;20392;-49
2021/10/07 06:15:10;;;;;;;66.47;24.03;;;;;;;;;;4992672;28;20412;-49
2021/10/07 06:17:36;;;;;;;77.77;26.73;;;;;;;;;;4992377;28;20408;-50
2021/10/07 06:20:07;;;;;;;197.47;33.07;;;;;;;;;;4992517;28;20510;-49
2021/10/07 06:22:33;;;;;;;70.50;26.07;;;;;;;;;;4992273;28;20487;-49
2021/10/07 06:24:59;;;;;;;71.63;23.63;;;;;;;;;;4992240;28;20765;-49
2021/10/07 06:27:25;;;;;;;69.77;23.00;;;;;;;;;;4992302;28;20471;-49
2021/10/07 06:29:51;;;;;;;53.40;21.37;;;;;;;;;;4992310;28;20451;-48
2021/10/07 06:32:17;;;;;;;57.43;21.70;;;;;;;;;;4992261;28;20885;-48
2021/10/07 06:34:43;;;;;;;52.30;21.33;;;;;;;;;;4992515;28;20528;-50
2021/10/07 06:37:09;;;;;;;54.03;20.70;;;;;;;;;;4992290;28;20492;-49
2021/10/07 06:39:36;;;;;;;55.87;21.97;;;;;;;;;;4992340;28;20435;-49
2021/10/07 06:42:02;;;;;;;58.20;22.20;;;;;;;;;;4992076;28;20492;-50
2021/10/07 06:44:28;;;;;;;61.83;21.60;;;;;;;;;;4992433;28;20867;-49
2021/10/07 06:46:54;;;;;;;47.87;20.13;;;;;;;;;;4992147;28;20461;-49
2021/10/07 06:49:20;;;;;;;45.27;20.37;;;;;;;;;;4992468;28;20800;-50
2021/10/07 06:51:46;;;;;;;61.50;22.70;;;;;;;;;;4992112;28;20392;-49
2021/10/07 06:54:12;;;;;;;54.37;20.70;;;;;;;;;;4992199;28;20749;-49
2021/10/07 06:56:38;;;;;;;50.60;19.83;;;;;;;;;;4992252;28;20408;-48
2021/10/07 06:59:05;;;;;;;48.20;20.90;;;;;;;;;;4992051;28;20432;-49
2021/10/07 07:01:30;;;;;;;45.80;19.87;;;;;;;;;;4992478;28;20495;-50
2021/10/07 07:03:57;;;;;;;50.93;20.60;;;;;;;;;;4991898;28;20805;-48
2021/10/07 07:06:28;;;;;;;59.20;20.07;;;;;;;;;;4992436;28;20424;-50
2021/10/07 07:08:54;;;;;;;50.70;20.23;;;;;;;;;;4991998;28;20409;-49
2021/10/07 07:11:25;;;;;;;45.17;20.33;;;;;;;;;;4992109;28;20411;-48
2021/10/07 07:13:52;;;;;;;52.40;19.97;;;;;;;;;;4992351;28;20416;-50
2021/10/07 07:16:18;;;;;;;42.80;19.40;;;;;;;;;;4992074;28;20505;-48
2021/10/07 07:18:44;;;;;;;43.57;19.23;;;;;;;;;;4991991;28;20404;-49
2021/10/07 07:21:10;;;;;;;48.57;19.97;;;;;;;;;;4992082;28;20967;-49
2021/10/07 07:23:36;;;;;;;41.80;19.50;;;;;;;;;;4991764;28;20820;-48
2021/10/07 07:26:02;;;;;;;39.80;18.70;;;;;;;;;;4998741;28;20462;-50
2021/10/07 07:28:28;;;;;;;44.37;19.57;;;;;;;;;;5011308;28;20439;-48
2021/10/07 07:30:54;;;;;;;41.60;20.63;;;;;;;;;;5011488;28;20549;-49
2021/10/07 07:33:24;;;;;;;38.97;19.03;;;;;;;;;;5011313;28;20408;-50
2021/10/07 07:35:50;;;;;;;41.83;19.77;;;;;;;;;;5011608;28;20404;-48
2021/10/07 07:38:16;;;;;;;44.90;21.10;;;;;;;;;;5015003;28;20407;-50
2021/10/07 07:40:43;;;;;;;39.23;19.20;;;;;;;;;;5014930;28;20800;-50
2021/10/07 07:43:09;;;;;;;37.67;18.73;;;;;;;;;;5013498;28;20710;-49
2021/10/07 07:45:35;;;;;;;43.30;20.20;;;;;;;;;;5014781;28;20457;-49
2021/10/07 07:48:01;;;;;;;38.40;18.73;;;;;;;;;;5014787;28;20405;-48
2021/10/07 07:50:29;;;;;;;44.20;19.07;;;;;;;;;;5014685;28;20551;-49
2021/10/07 07:52:58;;;;;;;33.30;17.60;;;;;;;;;;5014543;28;20409;-48
2021/10/07 07:55:24;;;;;;;45.43;20.70;;;;;;;;;;5014439;28;20414;-48
2021/10/07 07:57:50;;;;;;;41.03;19.20;;;;;;;;;;5014573;28;20497;-48
2021/10/07 08:00:16;;;;;;;35.37;18.17;;;;;;;;;;5014415;28;20474;-48
2021/10/07 08:02:42;;;;;;;46.27;19.87;;;;;;;;;;5014386;28;20925;-48
2021/10/07 08:05:09;;;;;;;38.30;18.00;;;;;;;;;;5014330;28;20454;-46
2021/10/07 08:07:35;;;;;;;40.03;18.07;;;;;;;;;;5014294;28;20462;-47
2021/10/07 08:10:01;;;;;;;36.87;18.07;;;;;;;;;;5013953;28;20487;-46
2021/10/07 08:12:32;;;;;;;35.57;17.67;;;;;;;;;;5014052;28;20767;-47
2021/10/07 08:14:59;;;;;;;35.90;19.20;;;;;;;;;;5014658;28;20814;-49
2021/10/07 08:17:25;;;;;;;40.17;19.27;;;;;;;;;;5014556;28;20412;-49
2021/10/07 08:19:51;;;;;;;33.17;17.93;;;;;;;;;;5014222;28;20428;-48
2021/10/07 08:22:18;;;;;;;36.70;17.50;;;;;;;;;;5013949;28;20409;-49
2021/10/07 08:24:44;;;;;;;31.93;17.40;;;;;;;;;;5014036;28;20545;-48
2021/10/07 08:27:10;;;;;;;38.20;17.27;;;;;;;;;;5014032;28;20500;-49
2021/10/07 08:29:36;;;;;;;34.27;18.10;;;;;;;;;;5013881;28;20441;-47
2021/10/07 08:32:02;;;;;;;35.00;18.43;;;;;;;;;;5014058;28;20402;-48
2021/10/07 08:34:28;;;;;;;32.50;17.00;;;;;;;;;;5013843;28;20820;-49
2021/10/07 08:36:54;;;;;;;32.17;16.00;;;;;;;;;;5013708;28;20405;-48
2021/10/07 08:39:21;;;;;;;32.33;16.70;;;;;;;;;;5013794;28;20428;-49
2021/10/07 08:41:50;;;;;;;31.30;16.60;;;;;;;;;;5013567;28;20415;-46
2021/10/07 08:44:16;;;;;;;32.00;16.60;;;;;;;;;;5013789;28;20870;-49
2021/10/07 08:46:45;;;;;;;27.90;17.40;;;;;;;;;;5013523;28;20430;-49
2021/10/07 08:49:15;;;;;;;30.80;15.93;;;;;;;;;;5013725;28;20822;-48
2021/10/07 08:51:42;;;;;;;30.00;16.40;;;;;;;;;;5013331;28;20376;-48
2021/10/07 08:54:09;;;;;;;35.27;19.77;;;;;;;;;;5013484;28;20836;-49
2021/10/07 08:56:35;;;;;;;29.27;17.50;;;;;;;;;;5013437;28;20824;-49
2021/10/07 08:59:01;;;;;;;30.27;16.73;;;;;;;;;;5013829;28;20425;-50
2021/10/07 09:01:44;;;;;;;29.03;16.80;;;;;;;;;;5013378;28;20412;-49
2021/10/07 09:04:16;;;;;;;28.90;16.37;;;;;;;;;;5013275;28;20444;-48
2021/10/07 09:06:45;;;;;;;31.60;16.50;;;;;;;;;;5013257;28;20397;-49
2021/10/07 09:09:11;;;;;;;26.83;15.97;;;;;;;;;;5013354;28;20429;-49
2021/10/07 09:11:37;;;;;;;29.40;14.90;;;;;;;;;;5013196;28;20931;-49
2021/10/07 09:14:07;;;;;;;24.17;13.83;;;;;;;;;;5013230;28;20471;-48
2021/10/07 09:16:41;;;;;;;29.00;16.27;;;;;;;;;;5013006;28;20421;-49
2021/10/07 09:19:17;;;;;;;31.67;17.40;;;;;;;;;;5013159;28;20432;-47
2021/10/07 09:21:44;;;;;;;25.07;15.50;;;;;;;;;;5012948;28;20405;-47
2021/10/07 09:24:29;;;;;;;31.93;15.57;;;;;;;;;;5011597;28;20956;-49
2021/10/07 09:26:58;;;;;;;23.53;14.17;;;;;;;;;;4993231;28;20421;-49
2021/10/07 09:29:35;;;;;;;29.30;15.77;;;;;;;;;;4993137;28;20496;-49
2021/10/07 09:32:01;;;;;;;27.03;15.70;;;;;;;;;;4993071;28;20863;-49
2021/10/07 09:34:37;;;;;;;26.80;16.10;;;;;;;;;;4993603;28;20509;-48
2021/10/07 09:37:15;;;;;;;24.10;13.20;;;;;;;;;;4993607;28;20481;-50
2021/10/07 09:39:46;;;;;;;30.00;15.47;;;;;;;;;;4993096;28;20639;-48
2021/10/07 09:42:15;;;;;;;28.93;15.40;;;;;;;;;;4992929;28;20404;-49
2021/10/07 09:44:56;;;;;;;27.87;14.30;;;;;;;;;;4993010;28;20495;-48
2021/10/07 09:47:28;;;;;;;23.17;15.03;;;;;;;;;;4993079;28;20413;-49
2021/10/07 09:50:07;;;;;;;27.17;14.47;;;;;;;;;;4992904;28;20419;-49
2021/10/07 09:52:37;;;;;;;22.20;14.03;;;;;;;;;;4992732;28;20490;-50
2021/10/07 09:55:14;;;;;;;26.23;15.30;;;;;;;;;;4992951;28;20383;-50
2021/10/07 09:58:02;;;;;;;24.60;14.63;;;;;;;;;;4992862;28;20880;-50
2021/10/07 10:00:30;;;;;;;341.43;81.53;;;;;;;;;;4991388;28;20423;-50
2021/10/07 10:02:57;;;;;;;18.60;8.37;;;;;;;;;;4991943;28;20416;-49
2021/10/07 10:05:24;;;;;;;18.30;7.63;;;;;;;;;;4992493;28;20455;-49
2021/10/07 10:07:50;;;;;;;12.87;7.47;;;;;;;;;;4992603;28;20501;-48
2021/10/07 10:10:16;;;;;;;11.97;7.27;;;;;;;;;;4992664;28;20926;-50
2021/10/07 10:12:42;;;;;;;9.33;6.33;;;;;;;;;;4992543;28;20368;-49
2021/10/07 10:15:09;;;;;;;8.07;6.70;;;;;;;;;;4992499;28;20392;-50
2021/10/07 10:17:35;;;;;;;10.17;6.87;;;;;;;;;;4990908;28;20404;-50
2021/10/07 10:20:03;;;;;;;7.10;6.37;;;;;;;;;;4992294;28;20511;-50
2021/10/07 10:22:30;;;;;;;13.73;6.20;;;;;;;;;;4992393;28;20383;-48
2021/10/07 10:24:58;;;;;;;6.77;6.03;;;;;;;;;;4992355;28;20501;-49
2021/10/07 10:27:24;;;;;;;9.10;5.50;;;;;;;;;;4992421;28;20966;-50
2021/10/07 10:29:50;;;;;;;7.83;5.53;;;;;;;;;;4991901;28;20499;-49
2021/10/07 10:32:16;;;;;;;10.63;6.40;;;;;;;;;;4992534;28;21034;-49
2021/10/07 10:34:44;;;;;;;12.43;7.40;;;;;;;;;;4992472;28;20913;-48
2021/10/07 10:37:11;;;;;;;14.60;7.23;;;;;;;;;;4992505;28;20410;-49
2021/10/07 10:39:38;;;;;;;8.27;6.70;;;;;;;;;;4992251;28;20425;-51
2021/10/07 10:42:16;;;;;;;13.80;7.10;;;;;;;;;;4992541;28;20490;-49
2021/10/07 10:44:48;;;;;;;9.60;6.67;;;;;;;;;;4992451;28;20580;-50
2021/10/07 10:47:15;;;;;;;10.73;6.90;;;;;;;;;;4992369;28;20403;-50
2021/10/07 10:49:49;;;;;;;15.50;6.30;;;;;;;;;;4998895;28;20398;-49
2021/10/07 10:52:16;;;;;;;10.47;8.60;;;;;;;;;;5011603;28;20374;-50
2021/10/07 10:54:43;;;;;;;10.70;8.50;;;;;;;;;;5011802;28;20403;-50
2021/10/07 10:57:10;;;;;;;13.00;8.90;;;;;;;;;;5011769;28;20490;-48
2021/10/07 10:59:39;;;;;;;15.20;8.47;;;;;;;;;;5011786;28;20444;-48
2021/10/07 11:02:17;;;;;;;11.50;8.50;;;;;;;;;;5011523;28;20409;-48
2021/10/07 11:04:47;;;;;;;10.83;8.27;;;;;;;;;;5011688;28;20452;-50
2021/10/07 11:07:21;;;;;;;15.23;8.47;;;;;;;;;;5011342;28;20909;-50
2021/10/07 11:09:52;;;;;;;9.30;7.03;;;;;;;;;;5011678;28;20431;-49
2021/10/07 11:12:18;;;;;;;9.67;7.60;;;;;;;;;;5015384;28;20833;-48
2021/10/07 11:14:45;;;;;;;8.87;7.20;;;;;;;;;;5015521;28;20831;-48
2021/10/07 11:17:11;;;;;;;9.43;7.33;;;;;;;;;;5015338;28;20409;-49
2021/10/07 11:19:37;;;;;;;7.90;6.27;;;;;;;;;;5015212;28;20898;-49
2021/10/07 11:22:10;;;;;;;6.13;4.80;;;;;;;;;;5015057;28;20411;-47
2021/10/07 11:24:47;;;;;;;4.77;4.20;;;;;;;;;;5015144;28;20425;-49
2021/10/07 11:27:12;;;;;;;5.80;4.70;;;;;;;;;;5015040;28;20412;-51
2021/10/07 11:29:38;;;;;;;4.73;4.00;;;;;;;;;;5015159;28;20442;-50
2021/10/07 11:32:04;;;;;;;4.40;4.10;;;;;;;;;;5015451;28;20417;-52
2021/10/07 11:34:30;;;;;;;3.83;3.53;;;;;;;;;;5015105;28;20426;-51
2021/10/07 11:36:56;;;;;;;4.40;3.50;;;;;;;;;;5014919;28;20509;-52
2021/10/07 11:39:22;;;;;;;3.47;3.20;;;;;;;;;;5014799;28;20485;-49
2021/10/07 11:41:48;;;;;;;3.47;3.23;;;;;;;;;;5014712;28;20415;-52
2021/10/07 11:44:14;;;;;;;3.83;3.40;;;;;;;;;;5014746;28;20486;-50
2021/10/07 11:46:40;;;;;;;4.03;3.73;;;;;;;;;;5014615;28;20407;-52
2021/10/07 11:49:07;;;;;;;3.83;3.40;;;;;;;;;;5014675;28;20423;-51
2021/10/07 11:51:34;;;;;;;3.27;2.97;;;;;;;;;;5014683;28;20411;-51
2021/10/07 11:54:04;;;;;;;3.30;3.00;;;;;;;;;;5014277;28;20395;-52
2021/10/07 11:56:32;;;;;;;3.87;3.57;;;;;;;;;;5014627;28;20399;-51
2021/10/07 11:59:00;;;;;;;3.73;3.10;;;;;;;;;;5014619;28;20410;-50
2021/10/07 12:01:29;;;;;;;3.80;3.50;;;;;;;;;;4996116;28;20410;-50
2021/10/07 12:03:57;;;;;;;2.90;2.70;;;;;;;;;;4994428;28;20752;-51
2021/10/07 12:06:23;;;;;;;3.73;3.43;;;;;;;;;;4994817;28;20597;-50
2021/10/07 12:08:50;;;;;;;3.77;3.47;;;;;;;;;;4994872;28;20464;-51
2021/10/07 12:11:21;;;;;;;5.70;3.30;;;;;;;;;;4994452;28;20491;-51
2021/10/07 12:13:48;;;;;;;6.43;3.20;;;;;;;;;;4994142;28;20412;-50
2021/10/07 12:16:25;;;;;;;4.47;3.17;;;;;;;;;;4993632;28;20408;-51
2021/10/07 12:18:53;;;;;;;4.13;3.33;;;;;;;;;;4994506;28;20907;-49
2021/10/07 12:21:19;;;;;;;2.87;2.67;;;;;;;;;;4994546;28;20407;-51
2021/10/07 12:24:02;;;;;;;2.80;2.60;;;;;;;;;;4993820;28;20412;-51
2021/10/07 12:26:30;;;;;;;3.07;2.80;;;;;;;;;;4994573;28;20506;-50
2021/10/07 12:28:58;;;;;;;3.17;2.87;;;;;;;;;;4993851;28;20474;-50
2021/10/07 12:31:26;;;;;;;2.87;2.67;;;;;;;;;;4993939;28;20435;-51
2021/10/07 12:33:59;;;;;;;3.17;2.97;;;;;;;;;;4993299;28;20917;-52
2021/10/07 12:36:32;;;;;;;2.90;2.70;;;;;;;;;;4994289;28;20396;-50
2021/10/07 12:38:58;;;;;;;4.40;3.57;;;;;;;;;;4994078;28;20405;-52
2021/10/07 12:41:31;;;;;;;3.30;2.80;;;;;;;;;;4994266;28;20397;-51
2021/10/07 12:43:58;;;;;;;3.87;2.60;;;;;;;;;;4994071;28;20796;-50
2021/10/07 12:46:24;;;;;;;4.27;2.90;;;;;;;;;;4994160;28;20397;-51
2021/10/07 12:48:52;;;;;;;3.73;2.90;;;;;;;;;;4993918;28;20409;-51
2021/10/07 12:51:19;;;;;;;3.50;2.83;;;;;;;;;;4993955;28;20400;-50
2021/10/07 12:53:45;;;;;;;3.77;3.47;;;;;;;;;;4993914;28;20404;-50
2021/10/07 12:56:12;;;;;;;4.37;3.70;;;;;;;;;;4993941;28;20412;-51
2021/10/07 12:58:45;;;;;;;3.83;3.53;;;;;;;;;;4994012;28;20905;-48
2021/10/07 13:01:15;;;;;;;3.73;3.20;;;;;;;;;;4993983;28;20411;-49
2021/10/07 13:03:41;;;;;;;4.97;4.10;;;;;;;;;;4993515;28;20422;-47
2021/10/07 13:06:09;;;;;;;5.47;4.60;;;;;;;;;;4992463;28;20458;-48
2021/10/07 13:08:35;;;;;;;4.90;3.80;;;;;;;;;;4993120;28;20430;-51
2021/10/07 13:11:01;;;;;;;4.00;3.70;;;;;;;;;;4993718;28;20424;-49
2021/10/07 13:13:27;;;;;;;4.40;4.00;;;;;;;;;;4993601;28;20419;-52
2021/10/07 13:15:53;;;;;;;6.50;5.23;;;;;;;;;;4993680;28;20935;-50
2021/10/07 13:18:19;;;;;;;3.60;3.40;;;;;;;;;;4993607;28;20499;-49
2021/10/07 13:20:47;;;;;;;4.97;3.97;;;;;;;;;;4993465;28;20424;-50
2021/10/07 13:23:13;;;;;;;83.90;11.63;;;;;;;;;;4993373;28;20400;-51
2021/10/07 13:25:42;;;;;;;4.07;3.77;;;;;;;;;;4993372;28;20460;-50
2021/10/07 13:28:08;;;;;;;4.70;4.17;;;;;;;;;;4993332;28;20880;-49
2021/10/07 13:30:34;;;;;;;4.30;3.70;;;;;;;;;;4993167;28;20452;-49
2021/10/07 13:33:00;;;;;;;4.60;4.20;;;;;;;;;;4992841;28;20416;-52
2021/10/07 13:35:27;;;;;;;6.50;4.60;;;;;;;;;;4992598;28;20416;-52
2021/10/07 13:37:54;;;;;;;5.00;3.90;;;;;;;;;;4992052;28;20451;-51
2021/10/07 13:40:20;;;;;;;4.03;3.67;;;;;;;;;;4993203;28;20428;-51
2021/10/07 13:42:47;;;;;;;7.33;5.73;;;;;;;;;;4993248;28;20764;-51
2021/10/07 13:45:15;;;;;;;4.27;3.87;;;;;;;;;;4993021;28;20452;-50
2021/10/07 13:47:41;;;;;;;6.27;3.57;;;;;;;;;;4992217;28;20769;-49
2021/10/07 13:50:08;;;;;;;7.00;4.60;;;;;;;;;;4992575;28;20463;-50
2021/10/07 13:52:34;;;;;;;6.10;4.57;;;;;;;;;;4991540;28;20490;-51
2021/10/07 13:55:00;;;;;;;5.10;4.60;;;;;;;;;;4991096;28;20487;-49
2021/10/07 13:57:26;;;;;;;5.37;4.87;;;;;;;;;;4991296;28;20923;-51
2021/10/07 13:59:53;;;;;;;5.93;5.00;;;;;;;;;;4992599;28;20428;-47
2021/10/07 14:02:19;;;;;;;6.77;6.07;;;;;;;;;;4992156;28;20943;-48
2021/10/07 14:04:45;;;;;;;93.73;15.63;;;;;;;;;;4992774;28;20467;-50
2021/10/07 14:07:11;;;;;;;8.17;5.33;;;;;;;;;;4992703;28;20485;-50
2021/10/07 14:09:37;;;;;;;5.00;4.60;;;;;;;;;;4992638;28;20427;-49
2021/10/07 14:12:03;;;;;;;5.83;4.90;;;;;;;;;;4992493;28;20558;-51
2021/10/07 14:14:30;;;;;;;82.83;11.33;;;;;;;;;;4992591;28;20494;-51
2021/10/07 14:16:56;;;;;;;6.17;5.60;;;;;;;;;;4992683;28;20428;-50
2021/10/07 14:19:22;;;;;;;25.13;6.07;;;;;;;;;;4992543;28;20423;-49
2021/10/07 14:21:48;;;;;;;67.67;7.40;;;;;;;;;;4992383;28;20778;-51
2021/10/07 14:24:14;;;;;;;4.87;4.37;;;;;;;;;;4992418;28;20412;-52
2021/10/07 14:26:40;;;;;;;5.50;5.03;;;;;;;;;;4992556;28;20408;-52